createdAt,value
2018-03-14T00:05:56.093Z,22.6
2018-03-14T00:15:55.325Z,22.7
2018-03-14T00:25:54.531Z,22.7
2018-03-14T00:35:53.869Z,22.6
2018-03-14T00:45:52.927Z,22.6
2018-03-14T00:55:52.213Z,22.6
2018-03-14T01:05:51.364Z,22.7
2018-03-14T01:15:50.573Z,22.7
2018-03-14T01:25:49.760Z,22.7
2018-03-14T01:35:48.969Z,22.8
2018-03-14T01:45:48.196Z,22.8
2018-03-14T01:55:47.385Z,22.8
2018-03-14T02:05:46.592Z,22.8
2018-03-14T02:15:45.800Z,22.8
2018-03-14T02:25:45.011Z,22.8
2018-03-14T02:35:44.216Z,22.8
2018-03-14T02:45:43.444Z,22.8
2018-03-14T02:55:42.633Z,22.9
2018-03-14T03:05:41.839Z,22.9
2018-03-14T03:15:41.247Z,22.9
2018-03-14T03:25:40.255Z,22.9
2018-03-14T03:35:39.470Z,22.9
2018-03-14T03:45:38.720Z,20
2018-03-14T03:55:37.899Z,20.2
2018-03-14T04:05:37.112Z,19
2018-03-14T04:15:36.293Z,19.2
2018-03-14T04:25:35.501Z,19.1
2018-03-14T04:35:34.716Z,19.2
2018-03-14T04:45:33.924Z,18.6
2018-03-14T04:55:33.144Z,18.6
2018-03-14T05:05:32.333Z,17.7
2018-03-14T05:15:31.542Z,17.8
2018-03-14T05:25:30.753Z,17.8
2018-03-14T05:35:29.959Z,17.8
2018-03-14T05:45:29.171Z,17.9
2018-03-14T05:55:28.409Z,17.9
2018-03-14T06:05:27.584Z,17.9
2018-03-14T06:15:26.792Z,17.9
2018-03-14T06:25:26.153Z,18
2018-03-14T06:35:25.212Z,18.1
2018-03-14T06:45:24.436Z,18.1
2018-03-14T06:55:23.624Z,18.3
2018-03-14T07:05:22.832Z,18.4
2018-03-14T07:15:22.041Z,18.5
2018-03-14T07:25:21.256Z,18.6
2018-03-14T07:35:20.683Z,18.6
2018-03-14T07:45:19.684Z,18.8
2018-03-14T07:55:18.872Z,19
2018-03-14T08:05:18.080Z,19.2
2018-03-14T08:15:17.287Z,19.6
2018-03-14T08:25:16.544Z,19.9
2018-03-14T08:35:15.901Z,19.9
2018-03-14T08:45:14.930Z,19.9
2018-03-14T08:55:14.168Z,19.9
2018-03-14T09:05:13.326Z,21.3
2018-03-14T09:15:12.567Z,21.3
2018-03-14T09:25:11.827Z,21.3
2018-03-14T09:35:10.971Z,21.3
2018-03-14T09:45:10.156Z,21.3
2018-03-14T09:55:09.365Z,21.3
2018-03-14T10:05:08.624Z,21.3
2018-03-14T10:15:07.782Z,21.3
2018-03-14T10:25:06.988Z,23.6
2018-03-14T10:35:06.194Z,24.1
2018-03-14T10:45:05.404Z,24.5
2018-03-14T10:55:04.609Z,25
2018-03-14T11:05:03.817Z,25.5
2018-03-14T11:15:03.044Z,26.1
2018-03-14T11:25:02.237Z,26.1
2018-03-14T11:35:01.490Z,27.1
2018-03-14T11:45:00.709Z,27.1
2018-03-14T11:54:59.855Z,27.1
2018-03-14T12:04:59.134Z,27.1
2018-03-14T12:14:58.270Z,27.1
2018-03-14T12:24:57.478Z,27.1
2018-03-14T12:34:56.685Z,27.1
2018-03-14T12:44:55.893Z,27.1
2018-03-14T12:54:55.123Z,27.1
2018-03-14T13:04:54.479Z,30.2
2018-03-14T13:14:53.517Z,30.6
2018-03-14T13:24:52.723Z,30.8
2018-03-14T13:34:51.931Z,30.9
2018-03-14T13:44:51.157Z,30.9
2018-03-14T13:54:50.350Z,31
2018-03-14T14:04:49.608Z,31.1
2018-03-14T14:14:48.762Z,31.1
2018-03-14T14:24:47.968Z,31.2
2018-03-14T14:34:47.196Z,31.3
2018-03-14T14:44:46.708Z,31.4
2018-03-14T14:54:45.613Z,31.5
2018-03-14T15:04:44.804Z,31.6
2018-03-14T15:14:44.064Z,31.8
2018-03-14T15:24:43.220Z,31.9
2018-03-14T15:34:42.426Z,32
2018-03-14T15:44:41.634Z,32.1
2018-03-14T15:54:40.864Z,32.3
2018-03-14T16:04:40.050Z,32.4
2018-03-14T16:14:39.309Z,32.4
2018-03-14T16:24:38.493Z,32.4
2018-03-14T16:34:37.675Z,32.3
2018-03-14T16:44:36.978Z,32.3
2018-03-14T16:54:36.091Z,32.3
2018-03-14T17:04:35.308Z,32.3
2018-03-14T17:14:34.558Z,32.3
2018-03-14T17:24:33.714Z,32.2
2018-03-14T17:34:32.942Z,32.1
2018-03-14T17:44:32.149Z,32.1
2018-03-14T17:54:31.336Z,32.1
2018-03-14T18:04:30.564Z,31.8
2018-03-14T18:14:29.751Z,31.1
2018-03-14T18:24:28.960Z,30.8
2018-03-14T18:34:28.188Z,30.6
2018-03-14T18:44:27.404Z,30.4
2018-03-14T18:54:26.633Z,30
2018-03-14T19:04:25.793Z,29.9
2018-03-14T19:14:24.999Z,29.8
2018-03-14T19:24:24.210Z,29.2
2018-03-14T19:34:23.438Z,29.1
2018-03-14T19:44:22.630Z,25.6
2018-03-14T19:54:21.982Z,23.6
2018-03-14T20:04:21.061Z,23.6
2018-03-14T20:14:20.269Z,23.6
2018-03-14T20:24:19.478Z,23.2
2018-03-14T20:34:18.664Z,22.9
2018-03-14T20:44:17.880Z,23.1
2018-03-14T20:54:17.107Z,23.1
2018-03-14T21:04:16.308Z,23.2
2018-03-14T21:14:15.497Z,23.3
2018-03-14T21:24:14.704Z,23.4
2018-03-14T21:34:13.914Z,23.4
2018-03-14T21:44:13.140Z,23.4
2018-03-14T21:54:12.346Z,23.4
2018-03-14T22:04:11.536Z,23.5
2018-03-14T22:14:10.766Z,23.5
2018-03-14T22:24:09.952Z,23.6
2018-03-14T22:34:09.214Z,23.6
2018-03-14T22:44:08.420Z,23.6
2018-03-14T22:54:07.577Z,23.6
2018-03-14T23:04:06.805Z,23.6
2018-03-14T23:14:05.993Z,23.6
2018-03-14T23:24:05.201Z,23.6
2018-03-14T23:34:04.416Z,23.7
2018-03-14T23:44:03.637Z,23.6
2018-03-14T23:54:02.830Z,23.6
